sensor_id;sensor_type;location;lat;lon;timestamp;P1;durP1;ratioP1;P2;durP2;ratioP2
9801;SDS011;4940;50.900;4.672;2023-03-11T00:02:19;31.30;;;27.97;;
9801;SDS011;4940;50.900;4.672;2023-03-11T00:04:46;29.17;;;26.47;;
9801;SDS011;4940;50.900;4.672;2023-03-11T00:07:13;27.90;;;24.50;;
9801;SDS011;4940;50.900;4.672;2023-03-11T00:09:42;27.67;;;25.03;;
9801;SDS011;4940;50.900;4.672;2023-03-11T00:12:09;25.20;;;23.33;;
9801;SDS011;4940;50.900;4.672;2023-03-11T00:14:37;25.30;;;23.17;;
9801;SDS011;4940;50.900;4.672;2023-03-11T00:17:04;25.50;;;23.57;;
9801;SDS011;4940;50.900;4.672;2023-03-11T00:19:31;26.07;;;24.37;;
9801;SDS011;4940;50.900;4.672;2023-03-11T00:22:00;26.10;;;23.77;;
9801;SDS011;4940;50.900;4.672;2023-03-11T00:24:28;23.73;;;22.33;;
9801;SDS011;4940;50.900;4.672;2023-03-11T00:26:56;24.17;;;22.33;;
9801;SDS011;4940;50.900;4.672;2023-03-11T00:29:24;23.77;;;22.13;;
9801;SDS011;4940;50.900;4.672;2023-03-11T00:31:51;25.03;;;23.27;;
9801;SDS011;4940;50.900;4.672;2023-03-11T00:34:18;25.10;;;23.30;;
9801;SDS011;4940;50.900;4.672;2023-03-11T00:36:46;25.97;;;24.37;;
9801;SDS011;4940;50.900;4.672;2023-03-11T00:39:14;26.67;;;25.20;;
9801;SDS011;4940;50.900;4.672;2023-03-11T00:41:42;25.20;;;23.80;;
9801;SDS011;4940;50.900;4.672;2023-03-11T00:44:10;26.43;;;24.63;;
9801;SDS011;4940;50.900;4.672;2023-03-11T00:46:38;26.73;;;24.80;;
9801;SDS011;4940;50.900;4.672;2023-03-11T00:49:05;26.13;;;24.37;;
9801;SDS011;4940;50.900;4.672;2023-03-11T00:51:32;27.33;;;25.20;;
9801;SDS011;4940;50.900;4.672;2023-03-11T00:54:00;27.67;;;25.43;;
9801;SDS011;4940;50.900;4.672;2023-03-11T00:56:27;27.63;;;25.53;;
9801;SDS011;4940;50.900;4.672;2023-03-11T00:58:55;28.83;;;26.93;;
9801;SDS011;4940;50.900;4.672;2023-03-11T01:01:24;27.97;;;25.97;;
9801;SDS011;4940;50.900;4.672;2023-03-11T01:03:51;26.83;;;24.83;;
9801;SDS011;4940;50.900;4.672;2023-03-11T01:06:18;26.17;;;24.27;;
9801;SDS011;4940;50.900;4.672;2023-03-11T01:08:46;23.17;;;21.87;;
9801;SDS011;4940;50.900;4.672;2023-03-11T01:11:13;24.83;;;23.03;;
9801;SDS011;4940;50.900;4.672;2023-03-11T01:13:41;24.60;;;22.77;;
9801;SDS011;4940;50.900;4.672;2023-03-11T01:16:08;22.90;;;21.17;;
9801;SDS011;4940;50.900;4.672;2023-03-11T01:18:37;23.27;;;21.67;;
9801;SDS011;4940;50.900;4.672;2023-03-11T01:21:04;23.10;;;21.83;;
9801;SDS011;4940;50.900;4.672;2023-03-11T01:23:31;24.23;;;22.63;;
9801;SDS011;4940;50.900;4.672;2023-03-11T01:25:59;22.77;;;21.37;;
9801;SDS011;4940;50.900;4.672;2023-03-11T01:28:26;21.90;;;20.13;;
9801;SDS011;4940;50.900;4.672;2023-03-11T01:30:53;22.43;;;20.90;;
9801;SDS011;4940;50.900;4.672;2023-03-11T01:33:21;22.70;;;21.27;;
9801;SDS011;4940;50.900;4.672;2023-03-11T01:35:50;22.77;;;21.40;;
9801;SDS011;4940;50.900;4.672;2023-03-11T01:38:17;23.97;;;22.57;;
9801;SDS011;4940;50.900;4.672;2023-03-11T01:40:45;24.00;;;21.70;;
9801;SDS011;4940;50.900;4.672;2023-03-11T01:46:07;25.00;;;23.33;;
9801;SDS011;4940;50.900;4.672;2023-03-11T01:48:36;24.43;;;22.47;;
9801;SDS011;4940;50.900;4.672;2023-03-11T01:51:05;24.43;;;23.03;;
9801;SDS011;4940;50.900;4.672;2023-03-11T01:53:33;23.83;;;22.10;;
9801;SDS011;4940;50.900;4.672;2023-03-11T01:56:00;25.60;;;24.13;;
9801;SDS011;4940;50.900;4.672;2023-03-11T01:58:30;27.57;;;25.70;;
9801;SDS011;4940;50.900;4.672;2023-03-11T02:01:01;29.67;;;27.30;;
9801;SDS011;4940;50.900;4.672;2023-03-11T02:03:29;28.13;;;25.97;;
9801;SDS011;4940;50.900;4.672;2023-03-11T02:05:59;28.03;;;26.50;;
9801;SDS011;4940;50.900;4.672;2023-03-11T02:08:29;28.63;;;26.40;;
9801;SDS011;4940;50.900;4.672;2023-03-11T02:10:58;27.43;;;25.60;;
9801;SDS011;4940;50.900;4.672;2023-03-11T02:13:26;29.27;;;27.47;;
9801;SDS011;4940;50.900;4.672;2023-03-11T02:15:54;23.37;;;21.37;;
9801;SDS011;4940;50.900;4.672;2023-03-11T02:18:21;23.97;;;21.70;;
9801;SDS011;4940;50.900;4.672;2023-03-11T02:20:51;22.67;;;20.97;;
9801;SDS011;4940;50.900;4.672;2023-03-11T02:23:25;22.57;;;20.87;;
9801;SDS011;4940;50.900;4.672;2023-03-11T02:25:59;22.77;;;21.10;;
9801;SDS011;4940;50.900;4.672;2023-03-11T02:28:32;22.80;;;20.70;;
9801;SDS011;4940;50.900;4.672;2023-03-11T02:31:01;23.10;;;21.30;;
9801;SDS011;4940;50.900;4.672;2023-03-11T02:33:30;24.50;;;22.53;;
9801;SDS011;4940;50.900;4.672;2023-03-11T02:35:59;22.90;;;21.10;;
9801;SDS011;4940;50.900;4.672;2023-03-11T02:38:27;23.67;;;21.27;;
9801;SDS011;4940;50.900;4.672;2023-03-11T02:40:54;22.47;;;21.00;;
9801;SDS011;4940;50.900;4.672;2023-03-11T02:43:24;22.37;;;20.33;;
9801;SDS011;4940;50.900;4.672;2023-03-11T02:45:58;20.87;;;18.97;;
9801;SDS011;4940;50.900;4.672;2023-03-11T02:48:26;20.93;;;19.43;;
9801;SDS011;4940;50.900;4.672;2023-03-11T02:50:55;20.63;;;19.33;;
9801;SDS011;4940;50.900;4.672;2023-03-11T02:53:24;19.30;;;18.00;;
9801;SDS011;4940;50.900;4.672;2023-03-11T02:55:54;19.33;;;17.87;;
9801;SDS011;4940;50.900;4.672;2023-03-11T02:58:21;19.10;;;17.90;;
9801;SDS011;4940;50.900;4.672;2023-03-11T03:00:49;20.43;;;18.53;;
9801;SDS011;4940;50.900;4.672;2023-03-11T03:03:17;21.83;;;19.47;;
9801;SDS011;4940;50.900;4.672;2023-03-11T03:05:45;20.50;;;19.30;;
9801;SDS011;4940;50.900;4.672;2023-03-11T03:08:12;20.37;;;18.57;;
9801;SDS011;4940;50.900;4.672;2023-03-11T03:10:39;20.63;;;19.07;;
9801;SDS011;4940;50.900;4.672;2023-03-11T03:13:06;18.90;;;17.80;;
9801;SDS011;4940;50.900;4.672;2023-03-11T03:15:34;20.03;;;18.70;;
9801;SDS011;4940;50.900;4.672;2023-03-11T03:18:01;20.53;;;18.90;;
9801;SDS011;4940;50.900;4.672;2023-03-11T03:20:30;20.03;;;18.77;;
9801;SDS011;4940;50.900;4.672;2023-03-11T03:22:57;19.90;;;18.50;;
9801;SDS011;4940;50.900;4.672;2023-03-11T03:25:25;19.27;;;17.97;;
9801;SDS011;4940;50.900;4.672;2023-03-11T03:27:52;19.27;;;17.57;;
9801;SDS011;4940;50.900;4.672;2023-03-11T03:30:20;18.97;;;17.67;;
9801;SDS011;4940;50.900;4.672;2023-03-11T03:32:47;19.20;;;18.00;;
9801;SDS011;4940;50.900;4.672;2023-03-11T03:35:15;19.10;;;17.90;;
9801;SDS011;4940;50.900;4.672;2023-03-11T03:37:44;18.87;;;17.50;;
9801;SDS011;4940;50.900;4.672;2023-03-11T03:40:11;20.40;;;18.87;;
9801;SDS011;4940;50.900;4.672;2023-03-11T03:42:39;20.33;;;18.60;;
9801;SDS011;4940;50.900;4.672;2023-03-11T03:45:07;20.30;;;18.87;;
9801;SDS011;4940;50.900;4.672;2023-03-11T03:47:35;21.50;;;19.33;;
9801;SDS011;4940;50.900;4.672;2023-03-11T03:50:03;20.47;;;18.73;;
9801;SDS011;4940;50.900;4.672;2023-03-11T03:52:32;20.07;;;18.67;;
9801;SDS011;4940;50.900;4.672;2023-03-11T03:55:02;20.00;;;18.80;;
9801;SDS011;4940;50.900;4.672;2023-03-11T03:57:30;19.80;;;18.20;;
9801;SDS011;4940;50.900;4.672;2023-03-11T03:59:58;18.93;;;17.83;;
9801;SDS011;4940;50.900;4.672;2023-03-11T04:02:25;17.60;;;16.03;;
9801;SDS011;4940;50.900;4.672;2023-03-11T04:04:52;16.97;;;15.63;;
9801;SDS011;4940;50.900;4.672;2023-03-11T04:07:20;17.87;;;16.20;;
9801;SDS011;4940;50.900;4.672;2023-03-11T04:09:47;16.70;;;15.13;;
9801;SDS011;4940;50.900;4.672;2023-03-11T04:12:16;17.20;;;16.00;;
9801;SDS011;4940;50.900;4.672;2023-03-11T04:14:43;16.10;;;14.80;;
9801;SDS011;4940;50.900;4.672;2023-03-11T04:17:11;16.23;;;15.00;;
9801;SDS011;4940;50.900;4.672;2023-03-11T04:19:39;16.03;;;14.83;;
9801;SDS011;4940;50.900;4.672;2023-03-11T04:22:06;14.57;;;13.67;;
9801;SDS011;4940;50.900;4.672;2023-03-11T04:24:33;14.40;;;13.40;;
9801;SDS011;4940;50.900;4.672;2023-03-11T04:27:01;14.67;;;13.40;;
9801;SDS011;4940;50.900;4.672;2023-03-11T04:29:30;14.23;;;13.07;;
9801;SDS011;4940;50.900;4.672;2023-03-11T04:31:57;14.23;;;13.13;;
9801;SDS011;4940;50.900;4.672;2023-03-11T04:34:24;14.10;;;11.93;;
9801;SDS011;4940;50.900;4.672;2023-03-11T04:36:52;12.87;;;11.90;;
9801;SDS011;4940;50.900;4.672;2023-03-11T04:39:19;12.00;;;11.20;;
9801;SDS011;4940;50.900;4.672;2023-03-11T04:41:47;11.90;;;11.00;;
9801;SDS011;4940;50.900;4.672;2023-03-11T04:44:14;12.97;;;11.97;;
9801;SDS011;4940;50.900;4.672;2023-03-11T04:46:43;11.90;;;11.00;;
9801;SDS011;4940;50.900;4.672;2023-03-11T04:49:10;12.63;;;11.93;;
9801;SDS011;4940;50.900;4.672;2023-03-11T04:51:38;13.53;;;12.53;;
9801;SDS011;4940;50.900;4.672;2023-03-11T04:54:05;13.70;;;12.40;;
9801;SDS011;4940;50.900;4.672;2023-03-11T04:56:33;14.50;;;13.10;;
9801;SDS011;4940;50.900;4.672;2023-03-11T04:59:00;13.63;;;12.50;;
9801;SDS011;4940;50.900;4.672;2023-03-11T05:01:28;14.57;;;13.47;;
9801;SDS011;4940;50.900;4.672;2023-03-11T05:03:56;14.30;;;13.13;;
9801;SDS011;4940;50.900;4.672;2023-03-11T05:06:24;14.67;;;12.73;;
9801;SDS011;4940;50.900;4.672;2023-03-11T05:08:51;13.77;;;11.33;;
9801;SDS011;4940;50.900;4.672;2023-03-11T05:11:18;12.90;;;11.83;;
9801;SDS011;4940;50.900;4.672;2023-03-11T05:13:46;12.90;;;11.90;;
9801;SDS011;4940;50.900;4.672;2023-03-11T05:16:13;13.80;;;12.43;;
9801;SDS011;4940;50.900;4.672;2023-03-11T05:18:41;12.43;;;11.53;;
9801;SDS011;4940;50.900;4.672;2023-03-11T05:21:10;13.73;;;12.27;;
9801;SDS011;4940;50.900;4.672;2023-03-11T05:23:37;12.53;;;11.53;;
9801;SDS011;4940;50.900;4.672;2023-03-11T05:26:05;12.30;;;11.20;;
9801;SDS011;4940;50.900;4.672;2023-03-11T05:28:32;13.00;;;11.90;;
9801;SDS011;4940;50.900;4.672;2023-03-11T05:31:00;12.90;;;12.00;;
9801;SDS011;4940;50.900;4.672;2023-03-11T05:33:27;12.77;;;11.53;;
9801;SDS011;4940;50.900;4.672;2023-03-11T05:36:02;12.07;;;10.93;;
9801;SDS011;4940;50.900;4.672;2023-03-11T05:38:32;12.53;;;11.40;;
9801;SDS011;4940;50.900;4.672;2023-03-11T05:40:59;12.03;;;11.10;;
9801;SDS011;4940;50.900;4.672;2023-03-11T05:43:27;12.23;;;11.47;;
9801;SDS011;4940;50.900;4.672;2023-03-11T05:45:54;13.90;;;12.87;;
9801;SDS011;4940;50.900;4.672;2023-03-11T05:48:21;19.13;;;12.70;;
9801;SDS011;4940;50.900;4.672;2023-03-11T05:50:49;13.50;;;12.60;;
9801;SDS011;4940;50.900;4.672;2023-03-11T05:53:16;13.63;;;12.40;;
9801;SDS011;4940;50.900;4.672;2023-03-11T05:55:48;12.57;;;11.87;;
9801;SDS011;4940;50.900;4.672;2023-03-11T05:58:21;13.40;;;11.90;;
9801;SDS011;4940;50.900;4.672;2023-03-11T06:00:48;13.70;;;12.40;;
9801;SDS011;4940;50.900;4.672;2023-03-11T06:03:16;13.17;;;12.27;;
9801;SDS011;4940;50.900;4.672;2023-03-11T06:05:43;14.13;;;12.93;;
9801;SDS011;4940;50.900;4.672;2023-03-11T06:08:11;14.70;;;13.80;;
9801;SDS011;4940;50.900;4.672;2023-03-11T06:10:38;16.40;;;14.80;;
9801;SDS011;4940;50.900;4.672;2023-03-11T06:13:07;16.97;;;15.60;;
9801;SDS011;4940;50.900;4.672;2023-03-11T06:15:36;18.23;;;17.03;;
9801;SDS011;4940;50.900;4.672;2023-03-11T06:18:03;18.43;;;17.33;;
9801;SDS011;4940;50.900;4.672;2023-03-11T06:20:31;18.20;;;16.77;;
9801;SDS011;4940;50.900;4.672;2023-03-11T06:22:58;18.87;;;17.30;;
9801;SDS011;4940;50.900;4.672;2023-03-11T06:25:26;20.53;;;18.93;;
9801;SDS011;4940;50.900;4.672;2023-03-11T06:27:53;20.23;;;18.30;;
9801;SDS011;4940;50.900;4.672;2023-03-11T06:30:22;21.07;;;19.57;;
9801;SDS011;4940;50.900;4.672;2023-03-11T06:32:50;22.10;;;20.17;;
9801;SDS011;4940;50.900;4.672;2023-03-11T06:35:19;22.47;;;20.90;;
9801;SDS011;4940;50.900;4.672;2023-03-11T06:37:46;20.50;;;19.20;;
9801;SDS011;4940;50.900;4.672;2023-03-11T06:40:19;22.77;;;21.27;;
9801;SDS011;4940;50.900;4.672;2023-03-11T06:42:47;23.93;;;22.33;;
9801;SDS011;4940;50.900;4.672;2023-03-11T06:45:15;24.30;;;22.30;;
9801;SDS011;4940;50.900;4.672;2023-03-11T06:47:43;24.27;;;22.43;;
9801;SDS011;4940;50.900;4.672;2023-03-11T06:50:11;26.13;;;23.33;;
9801;SDS011;4940;50.900;4.672;2023-03-11T06:52:38;25.57;;;23.33;;
9801;SDS011;4940;50.900;4.672;2023-03-11T06:55:06;25.93;;;23.80;;
9801;SDS011;4940;50.900;4.672;2023-03-11T06:57:33;25.77;;;23.97;;
9801;SDS011;4940;50.900;4.672;2023-03-11T07:00:01;28.00;;;25.57;;
9801;SDS011;4940;50.900;4.672;2023-03-11T07:02:31;29.17;;;27.00;;
9801;SDS011;4940;50.900;4.672;2023-03-11T07:05:00;30.67;;;28.27;;
9801;SDS011;4940;50.900;4.672;2023-03-11T07:07:27;33.07;;;30.27;;
9801;SDS011;4940;50.900;4.672;2023-03-11T07:09:55;33.13;;;30.33;;
9801;SDS011;4940;50.900;4.672;2023-03-11T07:12:22;34.03;;;31.00;;
9801;SDS011;4940;50.900;4.672;2023-03-11T07:14:52;35.50;;;32.23;;
9801;SDS011;4940;50.900;4.672;2023-03-11T07:17:20;38.23;;;34.70;;
9801;SDS011;4940;50.900;4.672;2023-03-11T07:19:48;36.63;;;33.73;;
9801;SDS011;4940;50.900;4.672;2023-03-11T07:22:17;37.87;;;34.43;;
9801;SDS011;4940;50.900;4.672;2023-03-11T07:24:44;36.33;;;33.20;;
9801;SDS011;4940;50.900;4.672;2023-03-11T07:27:11;37.33;;;34.03;;
9801;SDS011;4940;50.900;4.672;2023-03-11T07:29:39;37.47;;;34.37;;
9801;SDS011;4940;50.900;4.672;2023-03-11T07:32:06;37.60;;;34.20;;
9801;SDS011;4940;50.900;4.672;2023-03-11T07:34:34;41.40;;;37.63;;
9801;SDS011;4940;50.900;4.672;2023-03-11T07:37:02;39.87;;;36.30;;
9801;SDS011;4940;50.900;4.672;2023-03-11T07:39:31;38.73;;;35.53;;
9801;SDS011;4940;50.900;4.672;2023-03-11T07:41:58;39.67;;;36.37;;
9801;SDS011;4940;50.900;4.672;2023-03-11T07:44:25;39.67;;;36.20;;
9801;SDS011;4940;50.900;4.672;2023-03-11T07:46:53;40.80;;;36.85;;
9801;SDS011;4940;50.900;4.672;2023-03-11T07:49:20;41.20;;;37.73;;
9801;SDS011;4940;50.900;4.672;2023-03-11T07:51:48;39.85;;;36.40;;
9801;SDS011;4940;50.900;4.672;2023-03-11T07:54:15;38.33;;;35.22;;
9801;SDS011;4940;50.900;4.672;2023-03-11T07:56:44;36.70;;;33.80;;
9801;SDS011;4940;50.900;4.672;2023-03-11T07:59:11;31.73;;;29.08;;
9801;SDS011;4940;50.900;4.672;2023-03-11T08:01:39;21.42;;;19.70;;
9801;SDS011;4940;50.900;4.672;2023-03-11T08:04:11;8.35;;;7.47;;
9801;SDS011;4940;50.900;4.672;2023-03-11T08:06:42;8.07;;;4.28;;
9801;SDS011;4940;50.900;4.672;2023-03-11T08:09:10;8.27;;;3.30;;
9801;SDS011;4940;50.900;4.672;2023-03-11T08:11:37;4.95;;;3.10;;
9801;SDS011;4940;50.900;4.672;2023-03-11T08:14:06;9.35;;;2.90;;
9801;SDS011;4940;50.900;4.672;2023-03-11T08:16:33;8.20;;;2.85;;
9801;SDS011;4940;50.900;4.672;2023-03-11T08:19:01;7.97;;;2.80;;
9801;SDS011;4940;50.900;4.672;2023-03-11T08:21:29;6.93;;;2.63;;
9801;SDS011;4940;50.900;4.672;2023-03-11T08:23:56;4.10;;;1.95;;
9801;SDS011;4940;50.900;4.672;2023-03-11T08:26:25;6.00;;;2.47;;
9801;SDS011;4940;50.900;4.672;2023-03-11T08:28:53;5.75;;;2.45;;
9801;SDS011;4940;50.900;4.672;2023-03-11T08:31:23;5.63;;;2.25;;
9801;SDS011;4940;50.900;4.672;2023-03-11T08:33:52;6.63;;;2.20;;
9801;SDS011;4940;50.900;4.672;2023-03-11T08:36:22;4.28;;;2.30;;
9801;SDS011;4940;50.900;4.672;2023-03-11T08:38:49;5.57;;;2.10;;
9801;SDS011;4940;50.900;4.672;2023-03-11T08:41:16;6.45;;;2.33;;
9801;SDS011;4940;50.900;4.672;2023-03-11T08:43:44;4.00;;;2.10;;
9801;SDS011;4940;50.900;4.672;2023-03-11T08:46:13;5.82;;;2.47;;
9801;SDS011;4940;50.900;4.672;2023-03-11T08:48:47;6.57;;;2.40;;
9801;SDS011;4940;50.900;4.672;2023-03-11T08:51:14;4.25;;;2.30;;
9801;SDS011;4940;50.900;4.672;2023-03-11T08:53:42;7.75;;;2.22;;
9801;SDS011;4940;50.900;4.672;2023-03-11T08:56:09;4.38;;;2.63;;
9801;SDS011;4940;50.900;4.672;2023-03-11T08:58:37;5.25;;;2.28;;
9801;SDS011;4940;50.900;4.672;2023-03-11T09:01:05;5.78;;;2.38;;
9801;SDS011;4940;50.900;4.672;2023-03-11T09:03:33;8.73;;;2.38;;
9801;SDS011;4940;50.900;4.672;2023-03-11T09:06:03;5.07;;;1.98;;
9801;SDS011;4940;50.900;4.672;2023-03-11T09:08:31;3.50;;;2.00;;
9801;SDS011;4940;50.900;4.672;2023-03-11T09:10:59;3.70;;;2.10;;
9801;SDS011;4940;50.900;4.672;2023-03-11T09:13:26;5.05;;;2.20;;
9801;SDS011;4940;50.900;4.672;2023-03-11T09:15:54;2.90;;;1.60;;
9801;SDS011;4940;50.900;4.672;2023-03-11T09:18:21;4.32;;;1.60;;
9801;SDS011;4940;50.900;4.672;2023-03-11T09:20:49;7.03;;;1.80;;
9801;SDS011;4940;50.900;4.672;2023-03-11T09:23:17;2.50;;;1.50;;
9801;SDS011;4940;50.900;4.672;2023-03-11T09:25:44;4.03;;;1.33;;
9801;SDS011;4940;50.900;4.672;2023-03-11T09:28:12;2.42;;;1.30;;
9801;SDS011;4940;50.900;4.672;2023-03-11T09:30:40;6.03;;;1.42;;
9801;SDS011;4940;50.900;4.672;2023-03-11T09:33:07;1.95;;;1.10;;
9801;SDS011;4940;50.900;4.672;2023-03-11T09:35:36;2.47;;;1.02;;
9801;SDS011;4940;50.900;4.672;2023-03-11T09:38:04;4.07;;;1.20;;
9801;SDS011;4940;50.900;4.672;2023-03-11T09:40:38;2.10;;;1.02;;
9801;SDS011;4940;50.900;4.672;2023-03-11T09:43:15;3.30;;;1.10;;
9801;SDS011;4940;50.900;4.672;2023-03-11T09:45:52;2.55;;;1.30;;
9801;SDS011;4940;50.900;4.672;2023-03-11T09:48:28;2.35;;;1.02;;
9801;SDS011;4940;50.900;4.672;2023-03-11T09:50:58;5.35;;;1.05;;
9801;SDS011;4940;50.900;4.672;2023-03-11T09:53:34;4.18;;;1.20;;
9801;SDS011;4940;50.900;4.672;2023-03-11T09:56:07;2.88;;;0.60;;
9801;SDS011;4940;50.900;4.672;2023-03-11T09:58:36;5.07;;;1.02;;
9801;SDS011;4940;50.900;4.672;2023-03-11T10:01:10;1.85;;;1.00;;
9801;SDS011;4940;50.900;4.672;2023-03-11T10:03:41;1.63;;;0.88;;
9801;SDS011;4940;50.900;4.672;2023-03-11T10:06:13;1.52;;;0.93;;
9801;SDS011;4940;50.900;4.672;2023-03-11T10:08:43;2.38;;;1.00;;
9801;SDS011;4940;50.900;4.672;2023-03-11T10:11:18;1.15;;;0.98;;
9801;SDS011;4940;50.900;4.672;2023-03-11T10:13:55;3.85;;;1.13;;
9801;SDS011;4940;50.900;4.672;2023-03-11T10:16:32;2.60;;;0.93;;
9801;SDS011;4940;50.900;4.672;2023-03-11T10:19:07;1.98;;;0.85;;
9801;SDS011;4940;50.900;4.672;2023-03-11T10:21:46;4.53;;;0.90;;
9801;SDS011;4940;50.900;4.672;2023-03-11T10:24:30;2.00;;;0.93;;
9801;SDS011;4940;50.900;4.672;2023-03-11T10:27:12;3.47;;;1.00;;
9801;SDS011;4940;50.900;4.672;2023-03-11T10:29:45;2.80;;;1.05;;
9801;SDS011;4940;50.900;4.672;2023-03-11T10:32:19;4.38;;;1.08;;
9801;SDS011;4940;50.900;4.672;2023-03-11T10:34:51;6.80;;;1.10;;
9801;SDS011;4940;50.900;4.672;2023-03-11T10:37:25;3.22;;;0.80;;
9801;SDS011;4940;50.900;4.672;2023-03-11T10:39:55;2.55;;;1.15;;
9801;SDS011;4940;50.900;4.672;2023-03-11T10:42:31;4.93;;;1.10;;
9801;SDS011;4940;50.900;4.672;2023-03-11T10:45:00;1.55;;;0.90;;
9801;SDS011;4940;50.900;4.672;2023-03-11T10:47:27;3.85;;;1.00;;
9801;SDS011;4940;50.900;4.672;2023-03-11T10:49:55;1.70;;;0.93;;
9801;SDS011;4940;50.900;4.672;2023-03-11T10:52:22;2.28;;;0.90;;
9801;SDS011;4940;50.900;4.672;2023-03-11T10:54:57;5.32;;;1.10;;
9801;SDS011;4940;50.900;4.672;2023-03-11T10:57:27;1.90;;;1.20;;
9801;SDS011;4940;50.900;4.672;2023-03-11T11:00:00;3.03;;;1.10;;
9801;SDS011;4940;50.900;4.672;2023-03-11T11:02:36;3.97;;;1.00;;
9801;SDS011;4940;50.900;4.672;2023-03-11T11:05:06;5.30;;;1.25;;
9801;SDS011;4940;50.900;4.672;2023-03-11T11:08:01;3.08;;;1.08;;
9801;SDS011;4940;50.900;4.672;2023-03-11T11:10:29;1.73;;;0.90;;
9801;SDS011;4940;50.900;4.672;2023-03-11T11:13:00;4.22;;;1.10;;
9801;SDS011;4940;50.900;4.672;2023-03-11T11:15:36;1.92;;;0.80;;
9801;SDS011;4940;50.900;4.672;2023-03-11T11:18:13;3.30;;;0.98;;
9801;SDS011;4940;50.900;4.672;2023-03-11T11:20:51;3.28;;;1.40;;
9801;SDS011;4940;50.900;4.672;2023-03-11T11:23:24;3.20;;;1.02;;
9801;SDS011;4940;50.900;4.672;2023-03-11T11:25:56;2.00;;;1.10;;
9801;SDS011;4940;50.900;4.672;2023-03-11T11:28:25;1.90;;;1.00;;
9801;SDS011;4940;50.900;4.672;2023-03-11T11:30:54;3.13;;;0.80;;
9801;SDS011;4940;50.900;4.672;2023-03-11T11:33:24;3.60;;;1.20;;
9801;SDS011;4940;50.900;4.672;2023-03-11T11:35:53;3.35;;;1.10;;
9801;SDS011;4940;50.900;4.672;2023-03-11T11:38:23;4.03;;;1.00;;
9801;SDS011;4940;50.900;4.672;2023-03-11T11:40:53;2.88;;;0.90;;
9801;SDS011;4940;50.900;4.672;2023-03-11T11:43:24;1.95;;;0.90;;
9801;SDS011;4940;50.900;4.672;2023-03-11T11:46:02;5.15;;;0.95;;
9801;SDS011;4940;50.900;4.672;2023-03-11T11:48:38;1.75;;;0.75;;
9801;SDS011;4940;50.900;4.672;2023-03-11T11:51:12;3.22;;;0.90;;
9801;SDS011;4940;50.900;4.672;2023-03-11T11:53:45;2.45;;;1.05;;
9801;SDS011;4940;50.900;4.672;2023-03-11T11:56:17;1.83;;;0.93;;
9801;SDS011;4940;50.900;4.672;2023-03-11T11:58:45;3.25;;;0.85;;
9801;SDS011;4940;50.900;4.672;2023-03-11T12:01:14;3.42;;;0.90;;
9801;SDS011;4940;50.900;4.672;2023-03-11T12:06:43;2.45;;;0.80;;
9801;SDS011;4940;50.900;4.672;2023-03-11T12:09:17;4.43;;;0.85;;
9801;SDS011;4940;50.900;4.672;2023-03-11T12:11:52;2.60;;;1.05;;
9801;SDS011;4940;50.900;4.672;2023-03-11T12:14:26;1.02;;;0.80;;
9801;SDS011;4940;50.900;4.672;2023-03-11T12:17:02;3.65;;;0.90;;
9801;SDS011;4940;50.900;4.672;2023-03-11T12:19:34;3.05;;;1.02;;
9801;SDS011;4940;50.900;4.672;2023-03-11T12:25:03;1.13;;;0.68;;
9801;SDS011;4940;50.900;4.672;2023-03-11T12:27:46;1.98;;;0.70;;
9801;SDS011;4940;50.900;4.672;2023-03-11T12:30:18;2.15;;;0.98;;
9801;SDS011;4940;50.900;4.672;2023-03-11T12:32:50;3.20;;;1.05;;
9801;SDS011;4940;50.900;4.672;2023-03-11T12:35:22;2.67;;;0.80;;
9801;SDS011;4940;50.900;4.672;2023-03-11T12:37:56;2.75;;;1.10;;
9801;SDS011;4940;50.900;4.672;2023-03-11T12:46:29;6.28;;;0.98;;
9801;SDS011;4940;50.900;4.672;2023-03-11T12:49:38;3.10;;;1.13;;
9801;SDS011;4940;50.900;4.672;2023-03-11T12:52:18;2.78;;;0.80;;
9801;SDS011;4940;50.900;4.672;2023-03-11T12:57:58;2.05;;;0.82;;
9801;SDS011;4940;50.900;4.672;2023-03-11T13:00:48;2.25;;;0.80;;
9801;SDS011;4940;50.900;4.672;2023-03-11T13:06:30;1.80;;;0.95;;
9801;SDS011;4940;50.900;4.672;2023-03-11T13:09:12;2.22;;;0.80;;
9801;SDS011;4940;50.900;4.672;2023-03-11T13:11:41;2.40;;;0.80;;
9801;SDS011;4940;50.900;4.672;2023-03-11T13:14:18;1.52;;;0.60;;
9801;SDS011;4940;50.900;4.672;2023-03-11T13:16:52;2.78;;;0.50;;
9801;SDS011;4940;50.900;4.672;2023-03-11T13:19:33;3.20;;;0.80;;
9801;SDS011;4940;50.900;4.672;2023-03-11T13:22:04;1.05;;;0.50;;
9801;SDS011;4940;50.900;4.672;2023-03-11T13:24:54;1.35;;;0.77;;
9801;SDS011;4940;50.900;4.672;2023-03-11T13:27:26;0.98;;;0.63;;
9801;SDS011;4940;50.900;4.672;2023-03-11T13:30:06;1.00;;;0.68;;
9801;SDS011;4940;50.900;4.672;2023-03-11T13:32:44;2.28;;;0.93;;
9801;SDS011;4940;50.900;4.672;2023-03-11T13:35:32;6.00;;;0.75;;
9801;SDS011;4940;50.900;4.672;2023-03-11T13:38:14;0.85;;;0.73;;
9801;SDS011;4940;50.900;4.672;2023-03-11T13:40:59;1.10;;;0.60;;
9801;SDS011;4940;50.900;4.672;2023-03-11T13:43:28;1.55;;;0.73;;
9801;SDS011;4940;50.900;4.672;2023-03-11T13:45:56;2.83;;;0.60;;
9801;SDS011;4940;50.900;4.672;2023-03-11T13:48:27;3.53;;;0.95;;
9801;SDS011;4940;50.900;4.672;2023-03-11T13:50:58;3.25;;;1.10;;
9801;SDS011;4940;50.900;4.672;2023-03-11T13:53:30;3.08;;;0.80;;
9801;SDS011;4940;50.900;4.672;2023-03-11T13:56:01;0.95;;;0.80;;
9801;SDS011;4940;50.900;4.672;2023-03-11T13:58:29;2.17;;;0.90;;
9801;SDS011;4940;50.900;4.672;2023-03-11T14:00:57;1.60;;;0.90;;
9801;SDS011;4940;50.900;4.672;2023-03-11T14:03:25;2.47;;;0.70;;
9801;SDS011;4940;50.900;4.672;2023-03-11T14:05:57;4.28;;;0.80;;
9801;SDS011;4940;50.900;4.672;2023-03-11T14:08:27;1.48;;;0.63;;
9801;SDS011;4940;50.900;4.672;2023-03-11T14:10:57;2.42;;;0.75;;
9801;SDS011;4940;50.900;4.672;2023-03-11T14:13:26;3.30;;;0.93;;
9801;SDS011;4940;50.900;4.672;2023-03-11T14:15:56;4.53;;;0.90;;
9801;SDS011;4940;50.900;4.672;2023-03-11T14:18:32;4.32;;;0.75;;
9801;SDS011;4940;50.900;4.672;2023-03-11T14:21:02;2.33;;;0.80;;
9801;SDS011;4940;50.900;4.672;2023-03-11T14:23:35;3.63;;;1.10;;
9801;SDS011;4940;50.900;4.672;2023-03-11T14:26:06;4.55;;;1.38;;
9801;SDS011;4940;50.900;4.672;2023-03-11T14:28:35;5.43;;;0.90;;
9801;SDS011;4940;50.900;4.672;2023-03-11T14:31:06;6.13;;;1.25;;
9801;SDS011;4940;50.900;4.672;2023-03-11T14:33:33;2.72;;;1.15;;
9801;SDS011;4940;50.900;4.672;2023-03-11T14:36:01;2.67;;;1.00;;
9801;SDS011;4940;50.900;4.672;2023-03-11T14:38:33;5.45;;;1.20;;
9801;SDS011;4940;50.900;4.672;2023-03-11T14:41:01;1.38;;;0.90;;
9801;SDS011;4940;50.900;4.672;2023-03-11T14:43:31;5.22;;;0.98;;
9801;SDS011;4940;50.900;4.672;2023-03-11T14:46:00;1.80;;;0.70;;
9801;SDS011;4940;50.900;4.672;2023-03-11T14:48:31;4.07;;;1.20;;
9801;SDS011;4940;50.900;4.672;2023-03-11T14:51:02;57.72;;;9.63;;
9801;SDS011;4940;50.900;4.672;2023-03-11T14:53:34;2.83;;;1.40;;
9801;SDS011;4940;50.900;4.672;2023-03-11T14:56:05;1.88;;;1.08;;
9801;SDS011;4940;50.900;4.672;2023-03-11T14:58:38;2.30;;;0.82;;
9801;SDS011;4940;50.900;4.672;2023-03-11T15:01:08;1.73;;;0.65;;
9801;SDS011;4940;50.900;4.672;2023-03-11T15:03:39;3.40;;;1.10;;
9801;SDS011;4940;50.900;4.672;2023-03-11T15:06:11;3.00;;;1.20;;
9801;SDS011;4940;50.900;4.672;2023-03-11T15:08:43;152.48;;;21.55;;
9801;SDS011;4940;50.900;4.672;2023-03-11T15:11:19;3.60;;;0.80;;
9801;SDS011;4940;50.900;4.672;2023-03-11T15:13:49;4.32;;;1.00;;
9801;SDS011;4940;50.900;4.672;2023-03-11T15:16:27;3.33;;;0.77;;
9801;SDS011;4940;50.900;4.672;2023-03-11T15:18:58;2.42;;;1.00;;
9801;SDS011;4940;50.900;4.672;2023-03-11T15:21:27;4.95;;;1.08;;
9801;SDS011;4940;50.900;4.672;2023-03-11T15:23:58;3.67;;;0.98;;
9801;SDS011;4940;50.900;4.672;2023-03-11T15:26:29;2.97;;;1.02;;
9801;SDS011;4940;50.900;4.672;2023-03-11T15:28:58;1.48;;;1.00;;
9801;SDS011;4940;50.900;4.672;2023-03-11T15:31:28;2.13;;;0.90;;
9801;SDS011;4940;50.900;4.672;2023-03-11T15:34:18;1.55;;;0.88;;
9801;SDS011;4940;50.900;4.672;2023-03-11T15:36:59;3.65;;;0.77;;
9801;SDS011;4940;50.900;4.672;2023-03-11T15:39:45;4.05;;;1.10;;